Airfield :
LOGIN :

Register | Disclaimer

   EN    FR    IT 

 










Legend :    VFR   Marginal VFR   IFR   Intensive IFR   Very Intensive IFR
Visi :
Ceiling :
>= 8 km
>= 3000ft
5 to 8 km
1000 to 3000 ft
1500m to 5 km
500 to 1000 ft
800 to 1500m
200 to 500 ft
< 800m
< 200 ft
Symbols :   Thunderstorms  Fog  Heavy snow  Heavy precipitations  Wind > 20 kt
SIGMETs :     Misc.  Thunderstorms  Icing  Turbulence  Mountain Waves  Volcanic Ashes






- Airport Elevation : 53 ft
- IATA code : HAM


EDDH - Hamburg

CURRENT METAR :
  • 281150Z 25005KT 210V280 9999 FEW036 18/09 Q1022 NOSIG

EXPIRED METARs :
  • 281120Z 24005KT 200V300 9999 FEW033 18/10 Q1022 NOSIG
  • 281050Z 21006KT 170V250 9999 FEW030 18/10 Q1022 NOSIG
  • 281020Z 25006KT 210V290 9999 FEW028 18/10 Q1023 NOSIG
  • 280950Z 22006KT 190V250 9999 FEW025 17/11 Q1023 NOSIG
  • 280920Z 24005KT 200V280 9999 FEW020 16/11 Q1023 NOSIG

TAF TAF EDDH
Valid from the 28 at 12:00 until the 29 at 18:00 UTC


281100Z 2812/2918 23005KT 9999 FEW030
BECMG 2816/2819 11003KT
BECMG 2907/2909 11008KT
PROB30
TEMPO 2909/2912 SHRA BKN035CB
BECMG 2913/2915 21008KT
PROB40
TEMPO 2913/2916 21013KT RA



MET'MAP, your aeronautical weather chart ! - Copyright ORBIFLY December 2007 - Disclaimer

ORBIFLY MET'MAP TEAM :

Programming & Development : Alexandra Zaïnal
Concept & original design : Baudouin d'Aumeries
Assistance for programming : Marc-Olivier Méhu
Technical & hardware support : Manuel Goepfert

Contact : metmap@orbifly.com




SOURCES & CREDITS :

   NOAA